Atlantic Dawn — WDF7671 — position and weather

sailwx.info

Track history (hours):
 
Tides and Currents Weather Stations Pressure Air Temp Water Temp Dewpoint Dewpoint Depression Visibility Wind Speed Wind Dir Waves Ship Positions

Atlantic Dawn

Owner: Atlantic Dawn LLC, Gretna, LA. More information available from US FCC via Universal Licensing System and Coast Guard Vessel Documentation Center.

Last reported at 2017-Dec-28 07:19 UTC. Time now 2018-Jan-22 17:57 UTC.
Position N 36°49' W 075°55'.
Warning: this ship's position is 25 days out of date.

Length 30 m; draft 3 m.

Type: Other ship. MMSI: 367486910.

Date/timePositionNaut miles runAvg speedWind from/ knotsBaromVisibWave heightAir tempDewpointWater temp
2017-Dec-28 07:19N 36°49' W 075°55'155 5.4
2017-Dec-27 02:33N 39°22' W 075°28'0 7.7
2017-Dec-27 02:30N 39°22' W 075°28'4 7.7
2017-Dec-27 02:00N 39°25' W 075°31'4 7.2
2017-Dec-27 01:30N 39°28' W 075°34'4 7.2
2017-Dec-27 01:00N 39°32' W 075°33'3 6.3
2017-Dec-27 00:30N 39°35' W 075°34'3 6.0
2017-Dec-27 00:00N 39°38' W 075°35'3 5.4
2017-Dec-26 23:27N 39°40' W 075°32'2 4.8
2017-Dec-26 23:00N 39°42' W 075°31'2 3.0
2017-Dec-26 22:22N 39°44' W 075°29'0 0.5
2017-Dec-26 21:47N 39°44' W 075°29'0 0.8
2017-Dec-26 21:28N 39°44' W 075°29'4 7.0
2017-Dec-26 20:52N 39°48' W 075°26'3 5.2
2017-Dec-26 20:16N 39°50' W 075°23'0 0.0
2017-Dec-26 19:57N 39°50' W 075°23'0 0.0
2017-Dec-26 19:22N 39°50' W 075°23'0 0.0
2017-Dec-26 18:49N 39°50' W 075°23'0 0.0
2017-Dec-26 18:17N 39°50' W 075°23'0 0.1
2017-Dec-26 18:00N 39°50' W 075°23'0 0.0
2017-Dec-26 17:25N 39°50' W 075°23'0 0.0
2017-Dec-26 16:52N 39°50' W 075°23'1 1.6
2017-Dec-26 16:06N 39°49' W 075°24'518.3
2017-Dec-26 15:49N 39°45' W 075°29'1 2.2
2017-Dec-26 15:21N 39°44' W 075°29'0 0.8
2017-Dec-26 14:46N 39°44' W 075°29'0 0.1
2017-Dec-26 13:58N 39°44' W 075°29'0 0.0
2017-Dec-26 07:24N 39°44' W 075°29'0 0.0
2017-Dec-25 13:48N 39°44' W 075°29'0 0.1
2017-Dec-25 12:42N 39°44' W 075°29'0 0.5
2017-Dec-25 12:30N 39°43' W 075°29'0 0.5
2017-Dec-25 11:48N 39°44' W 075°29'0 0.0
2017-Dec-25 11:19N 39°44' W 075°29'0 0.0
2017-Dec-25 05:44N 39°44' W 075°29'0 0.1
2017-Dec-25 05:25N 39°44' W 075°29'3 7.1
2017-Dec-25 05:00N 39°41' W 075°31'3 7.0
2017-Dec-25 04:30N 39°38' W 075°34'3 6.1
2017-Dec-25 04:00N 39°35' W 075°34'3 6.6
2017-Dec-25 03:30N 39°32' W 075°33'3 6.1
2017-Dec-25 03:00N 39°29' W 075°34'3 6.4
2017-Dec-25 02:30N 39°26' W 075°32'  
2017-Dec-22 16:28N 39°23' W 074°25'0 0.0
2017-Dec-22 14:57N 39°23' W 074°25'  
2017-Dec-19 05:39N 39°33' W 074°11'0 2.8
2017-Dec-19 05:28N 39°34' W 074°11'1 2.7
2017-Dec-19 04:57N 39°35' W 074°10'49 3.2
2017-Dec-18 13:50N 38°55' W 074°47'7 3.4
2017-Dec-18 11:53N 38°51' W 074°54'2 3.0
2017-Dec-18 11:10N 38°50' W 074°56'1 2.8
2017-Dec-18 10:56N 38°50' W 074°57'9 2.6
2017-Dec-18 07:32N 38°55' W 075°06'1 4.6
2017-Dec-18 07:21N 38°56' W 075°06'  
Track history (hours):
 
Tides and Currents Weather Stations Pressure Air Temp Water Temp Dewpoint Dewpoint Depression Visibility Wind Speed Wind Dir Waves Ship Positions

Atlantic Dawn

Owner: Atlantic Dawn LLC, Gretna, LA. More information available from US FCC via Universal Licensing System and Coast Guard Vessel Documentation Center.

Last reported at 2017-Dec-28 07:19 UTC. Time now 2018-Jan-22 17:57 UTC.
Position N 36°49' W 075°55'.
Warning: this ship's position is 25 days out of date.

Length 30 m; draft 3 m.

Type: Other ship. MMSI: 367486910.

Date/timePositionNaut miles runAvg speedWind from/ knotsBaromVisibWave heightAir tempDewpointWater temp
2017-Dec-28 07:19N 36°49' W 075°55'155 5.4
2017-Dec-27 02:33N 39°22' W 075°28'0 7.7
2017-Dec-27 02:30N 39°22' W 075°28'4 7.7
2017-Dec-27 02:00N 39°25' W 075°31'4 7.2
2017-Dec-27 01:30N 39°28' W 075°34'4 7.2
2017-Dec-27 01:00N 39°32' W 075°33'3 6.3
2017-Dec-27 00:30N 39°35' W 075°34'3 6.0
2017-Dec-27 00:00N 39°38' W 075°35'3 5.4
2017-Dec-26 23:27N 39°40' W 075°32'2 4.8
2017-Dec-26 23:00N 39°42' W 075°31'2 3.0
2017-Dec-26 22:22N 39°44' W 075°29'0 0.5
2017-Dec-26 21:47N 39°44' W 075°29'0 0.8
2017-Dec-26 21:28N 39°44' W 075°29'4 7.0
2017-Dec-26 20:52N 39°48' W 075°26'3 5.2
2017-Dec-26 20:16N 39°50' W 075°23'0 0.0
2017-Dec-26 19:57N 39°50' W 075°23'0 0.0
2017-Dec-26 19:22N 39°50' W 075°23'0 0.0
2017-Dec-26 18:49N 39°50' W 075°23'0 0.0
2017-Dec-26 18:17N 39°50' W 075°23'0 0.1
2017-Dec-26 18:00N 39°50' W 075°23'0 0.0
2017-Dec-26 17:25N 39°50' W 075°23'0 0.0
2017-Dec-26 16:52N 39°50' W 075°23'1 1.6
2017-Dec-26 16:06N 39°49' W 075°24'518.3
2017-Dec-26 15:49N 39°45' W 075°29'1 2.2
2017-Dec-26 15:21N 39°44' W 075°29'0 0.8
2017-Dec-26 14:46N 39°44' W 075°29'0 0.1
2017-Dec-26 13:58N 39°44' W 075°29'0 0.0
2017-Dec-26 07:24N 39°44' W 075°29'0 0.0
2017-Dec-25 13:48N 39°44' W 075°29'0 0.1
2017-Dec-25 12:42N 39°44' W 075°29'0 0.5
2017-Dec-25 12:30N 39°43' W 075°29'0 0.5
2017-Dec-25 11:48N 39°44' W 075°29'0 0.0
2017-Dec-25 11:19N 39°44' W 075°29'0 0.0
2017-Dec-25 05:44N 39°44' W 075°29'0 0.1
2017-Dec-25 05:25N 39°44' W 075°29'3 7.1
2017-Dec-25 05:00N 39°41' W 075°31'3 7.0
2017-Dec-25 04:30N 39°38' W 075°34'3 6.1
2017-Dec-25 04:00N 39°35' W 075°34'3 6.6
2017-Dec-25 03:30N 39°32' W 075°33'3 6.1
2017-Dec-25 03:00N 39°29' W 075°34'3 6.4
2017-Dec-25 02:30N 39°26' W 075°32'  
2017-Dec-22 16:28N 39°23' W 074°25'0 0.0
2017-Dec-22 14:57N 39°23' W 074°25'  
2017-Dec-19 05:39N 39°33' W 074°11'0 2.8
2017-Dec-19 05:28N 39°34' W 074°11'1 2.7
2017-Dec-19 04:57N 39°35' W 074°10'49 3.2
2017-Dec-18 13:50N 38°55' W 074°47'7 3.4
2017-Dec-18 11:53N 38°51' W 074°54'2 3.0
2017-Dec-18 11:10N 38°50' W 074°56'1 2.8
2017-Dec-18 10:56N 38°50' W 074°57'9 2.6
2017-Dec-18 07:32N 38°55' W 075°06'1 4.6
2017-Dec-18 07:21N 38°56' W 075°06'  

Dump ship's entire track history